sensor_id;sensor_type;location;lat;lon;timestamp;temperature;humidity
52275;DHT22;38228;50.940;4.024;2023-08-31T00:02:10;12.90;99.90
52275;DHT22;38228;50.940;4.024;2023-08-31T00:04:36;12.90;99.90
52275;DHT22;38228;50.940;4.024;2023-08-31T00:07:02;12.90;99.90
52275;DHT22;38228;50.940;4.024;2023-08-31T00:09:28;12.90;99.90
52275;DHT22;38228;50.940;4.024;2023-08-31T00:11:55;12.90;99.90
52275;DHT22;38228;50.940;4.024;2023-08-31T00:14:22;12.90;99.90
52275;DHT22;38228;50.940;4.024;2023-08-31T00:16:48;12.90;99.90
52275;DHT22;38228;50.940;4.024;2023-08-31T00:19:14;12.90;99.90
52275;DHT22;38228;50.940;4.024;2023-08-31T00:21:40;12.90;99.90
52275;DHT22;38228;50.940;4.024;2023-08-31T00:24:06;12.90;99.90
52275;DHT22;38228;50.940;4.024;2023-08-31T00:26:38;12.90;99.90
52275;DHT22;38228;50.940;4.024;2023-08-31T00:29:07;12.80;99.90
52275;DHT22;38228;50.940;4.024;2023-08-31T00:31:32;12.70;99.90
52275;DHT22;38228;50.940;4.024;2023-08-31T00:33:59;12.70;99.90
52275;DHT22;38228;50.940;4.024;2023-08-31T00:36:29;12.60;99.90
52275;DHT22;38228;50.940;4.024;2023-08-31T00:38:54;12.60;99.90
52275;DHT22;38228;50.940;4.024;2023-08-31T00:41:21;12.60;99.90
52275;DHT22;38228;50.940;4.024;2023-08-31T00:43:47;12.70;99.90
52275;DHT22;38228;50.940;4.024;2023-08-31T00:46:14;12.70;99.90
52275;DHT22;38228;50.940;4.024;2023-08-31T00:48:40;12.60;99.90
52275;DHT22;38228;50.940;4.024;2023-08-31T00:51:07;12.60;99.90
52275;DHT22;38228;50.940;4.024;2023-08-31T00:53:33;12.60;99.90
52275;DHT22;38228;50.940;4.024;2023-08-31T00:55:59;12.50;99.90
52275;DHT22;38228;50.940;4.024;2023-08-31T00:58:25;12.50;99.90
52275;DHT22;38228;50.940;4.024;2023-08-31T01:12:52;12.50;99.90
52275;DHT22;38228;50.940;4.024;2023-08-31T01:15:13;12.50;99.90
52275;DHT22;38228;50.940;4.024;2023-08-31T01:17:49;12.50;99.90
52275;DHT22;38228;50.940;4.024;2023-08-31T01:20:21;12.50;99.90
52275;DHT22;38228;50.940;4.024;2023-08-31T01:22:57;12.40;99.90
52275;DHT22;38228;50.940;4.024;2023-08-31T01:25:26;12.40;99.90
52275;DHT22;38228;50.940;4.024;2023-08-31T01:27:52;12.40;99.90
52275;DHT22;38228;50.940;4.024;2023-08-31T01:30:18;12.40;99.90
52275;DHT22;38228;50.940;4.024;2023-08-31T01:32:44;12.30;99.90
52275;DHT22;38228;50.940;4.024;2023-08-31T01:35:11;12.40;99.90
52275;DHT22;38228;50.940;4.024;2023-08-31T01:37:47;12.40;99.90
52275;DHT22;38228;50.940;4.024;2023-08-31T01:40:19;12.30;99.90
52275;DHT22;38228;50.940;4.024;2023-08-31T01:42:46;12.30;99.90
52275;DHT22;38228;50.940;4.024;2023-08-31T01:45:19;12.20;99.90
52275;DHT22;38228;50.940;4.024;2023-08-31T01:47:46;12.10;99.90
52275;DHT22;38228;50.940;4.024;2023-08-31T01:50:12;12.20;99.90
52275;DHT22;38228;50.940;4.024;2023-08-31T01:52:38;12.10;99.90
52275;DHT22;38228;50.940;4.024;2023-08-31T01:55:05;12.10;99.90
52275;DHT22;38228;50.940;4.024;2023-08-31T01:57:31;12.20;99.90
52275;DHT22;38228;50.940;4.024;2023-08-31T01:59:58;12.20;99.90
52275;DHT22;38228;50.940;4.024;2023-08-31T02:02:24;12.20;99.90
52275;DHT22;38228;50.940;4.024;2023-08-31T02:04:49;12.10;99.90
52275;DHT22;38228;50.940;4.024;2023-08-31T02:07:18;12.20;99.90
52275;DHT22;38228;50.940;4.024;2023-08-31T02:09:44;12.20;99.90
52275;DHT22;38228;50.940;4.024;2023-08-31T02:12:13;12.20;99.90
52275;DHT22;38228;50.940;4.024;2023-08-31T02:14:38;12.20;99.90
52275;DHT22;38228;50.940;4.024;2023-08-31T02:17:04;12.20;99.90
52275;DHT22;38228;50.940;4.024;2023-08-31T02:19:30;12.20;99.90
52275;DHT22;38228;50.940;4.024;2023-08-31T02:21:55;12.30;99.90
52275;DHT22;38228;50.940;4.024;2023-08-31T02:24:21;12.30;99.90
52275;DHT22;38228;50.940;4.024;2023-08-31T02:26:48;12.30;99.90
52275;DHT22;38228;50.940;4.024;2023-08-31T02:29:14;12.30;99.90
52275;DHT22;38228;50.940;4.024;2023-08-31T02:31:39;12.30;99.90
52275;DHT22;38228;50.940;4.024;2023-08-31T02:34:07;12.30;99.90
52275;DHT22;38228;50.940;4.024;2023-08-31T02:36:32;12.30;99.90
52275;DHT22;38228;50.940;4.024;2023-08-31T02:38:58;12.30;99.90
52275;DHT22;38228;50.940;4.024;2023-08-31T02:41:24;12.30;99.90
52275;DHT22;38228;50.940;4.024;2023-08-31T02:43:51;12.40;99.90
52275;DHT22;38228;50.940;4.024;2023-08-31T02:46:19;12.40;99.90
52275;DHT22;38228;50.940;4.024;2023-08-31T02:48:46;12.40;99.90
52275;DHT22;38228;50.940;4.024;2023-08-31T02:51:11;12.40;99.90
52275;DHT22;38228;50.940;4.024;2023-08-31T02:53:37;12.40;99.90
52275;DHT22;38228;50.940;4.024;2023-08-31T02:56:03;12.40;99.90
52275;DHT22;38228;50.940;4.024;2023-08-31T02:58:29;12.30;99.90
52275;DHT22;38228;50.940;4.024;2023-08-31T03:00:55;12.40;99.90
52275;DHT22;38228;50.940;4.024;2023-08-31T03:03:21;12.40;99.90
52275;DHT22;38228;50.940;4.024;2023-08-31T03:05:47;12.30;99.90
52275;DHT22;38228;50.940;4.024;2023-08-31T03:08:13;12.40;99.90
52275;DHT22;38228;50.940;4.024;2023-08-31T03:10:39;12.30;99.90
52275;DHT22;38228;50.940;4.024;2023-08-31T03:13:05;12.30;99.90
52275;DHT22;38228;50.940;4.024;2023-08-31T03:15:34;12.30;99.90
52275;DHT22;38228;50.940;4.024;2023-08-31T03:18:00;12.30;99.90
52275;DHT22;38228;50.940;4.024;2023-08-31T03:20:26;12.30;99.90
52275;DHT22;38228;50.940;4.024;2023-08-31T03:22:51;12.30;99.90
52275;DHT22;38228;50.940;4.024;2023-08-31T03:25:17;12.30;99.90
52275;DHT22;38228;50.940;4.024;2023-08-31T03:27:43;12.30;99.90
52275;DHT22;38228;50.940;4.024;2023-08-31T03:30:09;12.30;99.90
52275;DHT22;38228;50.940;4.024;2023-08-31T03:32:35;12.30;99.90
52275;DHT22;38228;50.940;4.024;2023-08-31T03:35:04;12.20;99.90
52275;DHT22;38228;50.940;4.024;2023-08-31T03:37:30;12.30;99.90
52275;DHT22;38228;50.940;4.024;2023-08-31T03:39:56;12.20;99.90
52275;DHT22;38228;50.940;4.024;2023-08-31T03:42:22;12.20;99.90
52275;DHT22;38228;50.940;4.024;2023-08-31T03:44:47;12.20;99.90
52275;DHT22;38228;50.940;4.024;2023-08-31T03:47:13;12.20;99.90
52275;DHT22;38228;50.940;4.024;2023-08-31T03:49:39;12.20;99.90
52275;DHT22;38228;50.940;4.024;2023-08-31T03:52:05;12.20;99.90
52275;DHT22;38228;50.940;4.024;2023-08-31T03:54:31;12.20;99.90
52275;DHT22;38228;50.940;4.024;2023-08-31T03:56:56;12.20;99.90
52275;DHT22;38228;50.940;4.024;2023-08-31T03:59:23;12.20;99.90
52275;DHT22;38228;50.940;4.024;2023-08-31T04:01:48;12.20;99.90
52275;DHT22;38228;50.940;4.024;2023-08-31T04:04:14;12.20;99.90
52275;DHT22;38228;50.940;4.024;2023-08-31T04:06:40;12.10;99.90
52275;DHT22;38228;50.940;4.024;2023-08-31T04:09:05;12.10;99.90
52275;DHT22;38228;50.940;4.024;2023-08-31T04:11:32;12.20;99.90
52275;DHT22;38228;50.940;4.024;2023-08-31T04:13:58;12.20;99.90
52275;DHT22;38228;50.940;4.024;2023-08-31T04:16:24;12.20;99.90
52275;DHT22;38228;50.940;4.024;2023-08-31T04:18:50;12.30;99.90
52275;DHT22;38228;50.940;4.024;2023-08-31T04:21:17;12.30;99.90
52275;DHT22;38228;50.940;4.024;2023-08-31T04:23:44;12.40;99.90
52275;DHT22;38228;50.940;4.024;2023-08-31T04:26:13;12.40;99.90
52275;DHT22;38228;50.940;4.024;2023-08-31T04:28:39;12.50;99.90
52275;DHT22;38228;50.940;4.024;2023-08-31T04:31:06;12.60;99.90
52275;DHT22;38228;50.940;4.024;2023-08-31T04:33:39;12.60;99.90
52275;DHT22;38228;50.940;4.024;2023-08-31T04:36:05;12.60;99.90
52275;DHT22;38228;50.940;4.024;2023-08-31T04:38:32;12.60;99.90
52275;DHT22;38228;50.940;4.024;2023-08-31T04:40:58;12.60;99.90
52275;DHT22;38228;50.940;4.024;2023-08-31T04:43:25;12.60;99.90
52275;DHT22;38228;50.940;4.024;2023-08-31T04:45:54;12.60;99.90
52275;DHT22;38228;50.940;4.024;2023-08-31T04:48:20;12.60;99.90
52275;DHT22;38228;50.940;4.024;2023-08-31T04:50:46;12.60;99.90
52275;DHT22;38228;50.940;4.024;2023-08-31T04:53:12;12.50;99.90
52275;DHT22;38228;50.940;4.024;2023-08-31T04:55:37;12.50;99.90
52275;DHT22;38228;50.940;4.024;2023-08-31T04:58:04;12.50;99.90
52275;DHT22;38228;50.940;4.024;2023-08-31T05:00:30;12.60;99.90
52275;DHT22;38228;50.940;4.024;2023-08-31T05:02:56;12.60;99.90
52275;DHT22;38228;50.940;4.024;2023-08-31T05:05:22;12.60;99.90
52275;DHT22;38228;50.940;4.024;2023-08-31T05:07:47;12.60;99.90
52275;DHT22;38228;50.940;4.024;2023-08-31T05:10:13;12.50;99.90
52275;DHT22;38228;50.940;4.024;2023-08-31T05:12:39;12.50;99.90
52275;DHT22;38228;50.940;4.024;2023-08-31T05:15:05;12.50;99.90
52275;DHT22;38228;50.940;4.024;2023-08-31T05:17:31;12.50;99.90
52275;DHT22;38228;50.940;4.024;2023-08-31T05:19:57;12.60;99.90
52275;DHT22;38228;50.940;4.024;2023-08-31T05:22:23;12.60;99.90
52275;DHT22;38228;50.940;4.024;2023-08-31T05:24:49;12.70;99.90
52275;DHT22;38228;50.940;4.024;2023-08-31T05:27:18;12.70;99.90
52275;DHT22;38228;50.940;4.024;2023-08-31T05:29:43;12.70;99.90
52275;DHT22;38228;50.940;4.024;2023-08-31T05:32:09;12.60;99.90
52275;DHT22;38228;50.940;4.024;2023-08-31T05:34:35;12.70;99.90
52275;DHT22;38228;50.940;4.024;2023-08-31T05:37:04;12.70;99.90
52275;DHT22;38228;50.940;4.024;2023-08-31T05:39:32;12.80;99.90
52275;DHT22;38228;50.940;4.024;2023-08-31T05:42:01;12.80;99.90
52275;DHT22;38228;50.940;4.024;2023-08-31T05:44:27;12.90;99.90
52275;DHT22;38228;50.940;4.024;2023-08-31T05:46:52;12.90;99.90
52275;DHT22;38228;50.940;4.024;2023-08-31T05:49:18;12.90;99.90
52275;DHT22;38228;50.940;4.024;2023-08-31T05:51:44;12.90;99.90
52275;DHT22;38228;50.940;4.024;2023-08-31T05:54:09;13.10;99.90
52275;DHT22;38228;50.940;4.024;2023-08-31T05:56:39;13.00;99.90
52275;DHT22;38228;50.940;4.024;2023-08-31T05:59:08;13.10;99.90
52275;DHT22;38228;50.940;4.024;2023-08-31T06:01:35;13.10;99.90
52275;DHT22;38228;50.940;4.024;2023-08-31T06:04:01;13.10;99.90
52275;DHT22;38228;50.940;4.024;2023-08-31T06:06:28;13.20;99.90
52275;DHT22;38228;50.940;4.024;2023-08-31T06:08:54;13.20;99.90
52275;DHT22;38228;50.940;4.024;2023-08-31T06:11:20;13.30;99.90
52275;DHT22;38228;50.940;4.024;2023-08-31T06:13:47;13.20;99.90
52275;DHT22;38228;50.940;4.024;2023-08-31T06:16:12;13.40;99.90
52275;DHT22;38228;50.940;4.024;2023-08-31T06:18:38;13.40;99.90
52275;DHT22;38228;50.940;4.024;2023-08-31T06:21:04;13.40;99.90
52275;DHT22;38228;50.940;4.024;2023-08-31T06:23:30;13.40;99.90
52275;DHT22;38228;50.940;4.024;2023-08-31T06:25:56;13.50;99.90
52275;DHT22;38228;50.940;4.024;2023-08-31T06:28:21;13.30;99.90
52275;DHT22;38228;50.940;4.024;2023-08-31T06:30:47;13.40;99.90
52275;DHT22;38228;50.940;4.024;2023-08-31T06:33:14;13.60;99.90
52275;DHT22;38228;50.940;4.024;2023-08-31T06:35:40;13.60;99.90
52275;DHT22;38228;50.940;4.024;2023-08-31T06:38:06;13.60;99.90
52275;DHT22;38228;50.940;4.024;2023-08-31T06:40:31;13.60;99.90
52275;DHT22;38228;50.940;4.024;2023-08-31T06:42:57;13.50;99.90
52275;DHT22;38228;50.940;4.024;2023-08-31T06:45:23;13.70;99.90
52275;DHT22;38228;50.940;4.024;2023-08-31T06:47:49;13.90;99.90
52275;DHT22;38228;50.940;4.024;2023-08-31T06:50:15;14.10;99.90
52275;DHT22;38228;50.940;4.024;2023-08-31T06:52:41;14.20;99.90
52275;DHT22;38228;50.940;4.024;2023-08-31T06:55:08;14.30;99.90
52275;DHT22;38228;50.940;4.024;2023-08-31T06:57:33;14.50;99.90
52275;DHT22;38228;50.940;4.024;2023-08-31T07:00:00;14.50;99.90
52275;DHT22;38228;50.940;4.024;2023-08-31T07:02:29;14.60;99.90
52275;DHT22;38228;50.940;4.024;2023-08-31T07:04:55;14.70;99.90
52275;DHT22;38228;50.940;4.024;2023-08-31T07:07:21;14.70;99.90
52275;DHT22;38228;50.940;4.024;2023-08-31T07:09:47;14.80;99.90
52275;DHT22;38228;50.940;4.024;2023-08-31T07:12:16;14.80;99.90
52275;DHT22;38228;50.940;4.024;2023-08-31T07:14:42;14.90;99.90
52275;DHT22;38228;50.940;4.024;2023-08-31T07:17:08;14.80;99.90
52275;DHT22;38228;50.940;4.024;2023-08-31T07:19:37;14.90;99.90
52275;DHT22;38228;50.940;4.024;2023-08-31T07:22:03;14.90;99.90
52275;DHT22;38228;50.940;4.024;2023-08-31T07:24:29;14.90;99.90
52275;DHT22;38228;50.940;4.024;2023-08-31T07:26:55;14.80;99.90
52275;DHT22;38228;50.940;4.024;2023-08-31T07:29:21;14.90;99.90
52275;DHT22;38228;50.940;4.024;2023-08-31T07:31:47;15.00;99.90
52275;DHT22;38228;50.940;4.024;2023-08-31T07:34:13;15.10;99.90
52275;DHT22;38228;50.940;4.024;2023-08-31T07:36:39;15.20;99.90
52275;DHT22;38228;50.940;4.024;2023-08-31T07:39:05;15.20;99.90
52275;DHT22;38228;50.940;4.024;2023-08-31T07:41:31;15.20;99.90
52275;DHT22;38228;50.940;4.024;2023-08-31T07:43:57;15.30;99.90
52275;DHT22;38228;50.940;4.024;2023-08-31T07:46:24;15.30;99.90
52275;DHT22;38228;50.940;4.024;2023-08-31T07:48:49;15.40;99.90
52275;DHT22;38228;50.940;4.024;2023-08-31T07:51:16;15.50;99.90
52275;DHT22;38228;50.940;4.024;2023-08-31T07:53:42;15.60;99.90
52275;DHT22;38228;50.940;4.024;2023-08-31T07:56:08;15.50;99.90
52275;DHT22;38228;50.940;4.024;2023-08-31T07:58:33;15.70;99.90
52275;DHT22;38228;50.940;4.024;2023-08-31T08:00:59;15.90;99.90
52275;DHT22;38228;50.940;4.024;2023-08-31T08:03:25;16.00;99.90
52275;DHT22;38228;50.940;4.024;2023-08-31T08:05:51;16.10;99.90
52275;DHT22;38228;50.940;4.024;2023-08-31T08:08:17;16.20;99.90
52275;DHT22;38228;50.940;4.024;2023-08-31T08:10:42;16.30;99.90
52275;DHT22;38228;50.940;4.024;2023-08-31T08:13:09;16.40;99.90
52275;DHT22;38228;50.940;4.024;2023-08-31T08:15:35;16.70;99.90
52275;DHT22;38228;50.940;4.024;2023-08-31T08:18:01;16.70;99.90
52275;DHT22;38228;50.940;4.024;2023-08-31T08:20:27;16.80;99.90
52275;DHT22;38228;50.940;4.024;2023-08-31T08:22:54;16.80;99.90
52275;DHT22;38228;50.940;4.024;2023-08-31T08:25:20;17.00;99.90
52275;DHT22;38228;50.940;4.024;2023-08-31T08:27:47;17.00;99.90
52275;DHT22;38228;50.940;4.024;2023-08-31T08:30:13;17.00;99.90
52275;DHT22;38228;50.940;4.024;2023-08-31T08:32:39;17.00;99.90
52275;DHT22;38228;50.940;4.024;2023-08-31T08:35:06;17.30;99.90
52275;DHT22;38228;50.940;4.024;2023-08-31T08:37:32;17.60;99.90
52275;DHT22;38228;50.940;4.024;2023-08-31T08:39:58;17.70;99.90
52275;DHT22;38228;50.940;4.024;2023-08-31T08:42:25;17.60;99.90
52275;DHT22;38228;50.940;4.024;2023-08-31T08:44:51;17.70;99.90
52275;DHT22;38228;50.940;4.024;2023-08-31T08:47:20;17.60;99.90
52275;DHT22;38228;50.940;4.024;2023-08-31T08:49:47;17.60;99.90
52275;DHT22;38228;50.940;4.024;2023-08-31T08:52:17;17.60;99.90
52275;DHT22;38228;50.940;4.024;2023-08-31T08:54:43;17.70;99.90
52275;DHT22;38228;50.940;4.024;2023-08-31T08:57:10;18.00;99.90
52275;DHT22;38228;50.940;4.024;2023-08-31T08:59:35;17.90;99.90
52275;DHT22;38228;50.940;4.024;2023-08-31T09:02:01;17.90;99.90
52275;DHT22;38228;50.940;4.024;2023-08-31T09:04:30;18.10;99.90
52275;DHT22;38228;50.940;4.024;2023-08-31T09:06:56;18.30;99.90
52275;DHT22;38228;50.940;4.024;2023-08-31T09:09:22;18.50;99.90
52275;DHT22;38228;50.940;4.024;2023-08-31T09:11:48;18.30;99.90
52275;DHT22;38228;50.940;4.024;2023-08-31T09:14:19;18.30;99.90
52275;DHT22;38228;50.940;4.024;2023-08-31T09:16:47;18.60;99.90
52275;DHT22;38228;50.940;4.024;2023-08-31T09:19:23;18.60;99.90
52275;DHT22;38228;50.940;4.024;2023-08-31T09:21:51;18.80;99.90
52275;DHT22;38228;50.940;4.024;2023-08-31T09:24:17;18.80;99.90
52275;DHT22;38228;50.940;4.024;2023-08-31T09:26:57;19.00;99.90
52275;DHT22;38228;50.940;4.024;2023-08-31T09:29:23;18.90;99.90
52275;DHT22;38228;50.940;4.024;2023-08-31T09:31:49;19.10;99.90
52275;DHT22;38228;50.940;4.024;2023-08-31T09:34:16;19.40;99.90
52275;DHT22;38228;50.940;4.024;2023-08-31T09:36:43;19.30;99.90
52275;DHT22;38228;50.940;4.024;2023-08-31T09:39:09;19.10;99.90
52275;DHT22;38228;50.940;4.024;2023-08-31T09:41:52;19.20;99.90
52275;DHT22;38228;50.940;4.024;2023-08-31T09:44:19;19.50;99.90
52275;DHT22;38228;50.940;4.024;2023-08-31T09:46:45;19.60;99.90
52275;DHT22;38228;50.940;4.024;2023-08-31T09:49:16;19.50;99.90
52275;DHT22;38228;50.940;4.024;2023-08-31T09:51:45;19.30;99.90
52275;DHT22;38228;50.940;4.024;2023-08-31T09:54:15;19.20;99.90
52275;DHT22;38228;50.940;4.024;2023-08-31T09:56:43;19.10;99.90
52275;DHT22;38228;50.940;4.024;2023-08-31T09:59:13;19.30;99.90
52275;DHT22;38228;50.940;4.024;2023-08-31T10:01:40;19.50;99.90
52275;DHT22;38228;50.940;4.024;2023-08-31T10:04:07;19.70;99.90
52275;DHT22;38228;50.940;4.024;2023-08-31T10:06:35;19.80;99.90
52275;DHT22;38228;50.940;4.024;2023-08-31T10:09:04;20.00;99.90
52275;DHT22;38228;50.940;4.024;2023-08-31T10:11:31;19.90;99.90
52275;DHT22;38228;50.940;4.024;2023-08-31T10:13:58;20.00;99.90
52275;DHT22;38228;50.940;4.024;2023-08-31T10:16:25;20.10;99.90
52275;DHT22;38228;50.940;4.024;2023-08-31T10:18:52;20.20;99.90
52275;DHT22;38228;50.940;4.024;2023-08-31T10:21:19;20.30;99.90
52275;DHT22;38228;50.940;4.024;2023-08-31T10:23:48;20.60;99.90
52275;DHT22;38228;50.940;4.024;2023-08-31T10:26:27;20.40;99.90
52275;DHT22;38228;50.940;4.024;2023-08-31T10:28:54;20.30;99.90
52275;DHT22;38228;50.940;4.024;2023-08-31T10:31:20;20.40;99.90
52275;DHT22;38228;50.940;4.024;2023-08-31T10:34:00;20.40;99.90
52275;DHT22;38228;50.940;4.024;2023-08-31T10:36:45;20.40;99.90
52275;DHT22;38228;50.940;4.024;2023-08-31T10:39:13;20.40;99.90
52275;DHT22;38228;50.940;4.024;2023-08-31T10:41:41;20.30;99.90
52275;DHT22;38228;50.940;4.024;2023-08-31T10:44:24;20.20;99.90
52275;DHT22;38228;50.940;4.024;2023-08-31T10:46:51;20.20;99.90
52275;DHT22;38228;50.940;4.024;2023-08-31T10:49:22;20.40;99.90
52275;DHT22;38228;50.940;4.024;2023-08-31T10:54:33;20.70;99.90
52275;DHT22;38228;50.940;4.024;2023-08-31T10:57:04;20.40;99.90
52275;DHT22;38228;50.940;4.024;2023-08-31T10:59:52;19.90;99.90
52275;DHT22;38228;50.940;4.024;2023-08-31T11:05:06;19.90;99.90
52275;DHT22;38228;50.940;4.024;2023-08-31T11:07:33;20.30;99.90
52275;DHT22;38228;50.940;4.024;2023-08-31T11:10:19;20.80;99.90
52275;DHT22;38228;50.940;4.024;2023-08-31T11:12:56;21.30;99.90
52275;DHT22;38228;50.940;4.024;2023-08-31T11:15:24;21.70;99.90
52275;DHT22;38228;50.940;4.024;2023-08-31T11:17:52;21.80;99.90
52275;DHT22;38228;50.940;4.024;2023-08-31T11:20:21;21.60;99.90
52275;DHT22;38228;50.940;4.024;2023-08-31T11:22:48;21.30;99.90
52275;DHT22;38228;50.940;4.024;2023-08-31T11:25:20;21.50;99.90
52275;DHT22;38228;50.940;4.024;2023-08-31T11:28:00;21.70;99.90
52275;DHT22;38228;50.940;4.024;2023-08-31T11:30:27;21.50;99.90
52275;DHT22;38228;50.940;4.024;2023-08-31T11:32:53;21.10;99.90
52275;DHT22;38228;50.940;4.024;2023-08-31T11:35:21;20.60;99.90
52275;DHT22;38228;50.940;4.024;2023-08-31T11:37:51;20.10;99.90
52275;DHT22;38228;50.940;4.024;2023-08-31T11:40:17;19.80;99.90
52275;DHT22;38228;50.940;4.024;2023-08-31T11:42:44;19.90;99.90
52275;DHT22;38228;50.940;4.024;2023-08-31T11:45:11;20.00;99.90
52275;DHT22;38228;50.940;4.024;2023-08-31T11:47:38;20.20;99.90
52275;DHT22;38228;50.940;4.024;2023-08-31T11:50:06;20.20;99.90
52275;DHT22;38228;50.940;4.024;2023-08-31T11:53:29;20.50;99.90
52275;DHT22;38228;50.940;4.024;2023-08-31T11:55:55;20.30;99.90
52275;DHT22;38228;50.940;4.024;2023-08-31T11:58:20;20.40;99.90
52275;DHT22;38228;50.940;4.024;2023-08-31T12:16:43;20.70;99.90
52275;DHT22;38228;50.940;4.024;2023-08-31T12:19:09;20.70;99.90
52275;DHT22;38228;50.940;4.024;2023-08-31T12:21:35;20.50;99.90
52275;DHT22;38228;50.940;4.024;2023-08-31T12:24:01;20.70;99.90
52275;DHT22;38228;50.940;4.024;2023-08-31T12:26:29;20.70;99.90
52275;DHT22;38228;50.940;4.024;2023-08-31T12:28:55;20.80;99.90
52275;DHT22;38228;50.940;4.024;2023-08-31T12:31:24;20.80;99.90
52275;DHT22;38228;50.940;4.024;2023-08-31T12:33:50;20.70;99.90
52275;DHT22;38228;50.940;4.024;2023-08-31T12:36:16;20.70;99.90
52275;DHT22;38228;50.940;4.024;2023-08-31T12:38:41;20.80;99.90
52275;DHT22;38228;50.940;4.024;2023-08-31T12:41:07;20.90;99.90
52275;DHT22;38228;50.940;4.024;2023-08-31T12:43:34;21.00;99.90
52275;DHT22;38228;50.940;4.024;2023-08-31T12:46:00;21.10;99.90
52275;DHT22;38228;50.940;4.024;2023-08-31T12:48:26;21.20;99.90
52275;DHT22;38228;50.940;4.024;2023-08-31T12:50:52;21.40;99.90
52275;DHT22;38228;50.940;4.024;2023-08-31T12:53:22;21.60;99.90
52275;DHT22;38228;50.940;4.024;2023-08-31T12:55:48;21.70;99.90
52275;DHT22;38228;50.940;4.024;2023-08-31T12:58:15;21.80;99.90
52275;DHT22;38228;50.940;4.024;2023-08-31T13:00:41;21.80;99.90
52275;DHT22;38228;50.940;4.024;2023-08-31T13:03:09;21.90;99.90
52275;DHT22;38228;50.940;4.024;2023-08-31T13:05:38;21.90;99.90
52275;DHT22;38228;50.940;4.024;2023-08-31T13:08:04;22.00;99.90
52275;DHT22;38228;50.940;4.024;2023-08-31T13:10:30;21.80;99.90
52275;DHT22;38228;50.940;4.024;2023-08-31T13:12:56;21.80;99.90
52275;DHT22;38228;50.940;4.024;2023-08-31T13:15:22;21.90;99.90
52275;DHT22;38228;50.940;4.024;2023-08-31T13:17:48;22.10;99.90
52275;DHT22;38228;50.940;4.024;2023-08-31T13:20:13;21.80;99.90
52275;DHT22;38228;50.940;4.024;2023-08-31T13:22:39;21.90;99.90
52275;DHT22;38228;50.940;4.024;2023-08-31T13:25:05;22.00;99.90
52275;DHT22;38228;50.940;4.024;2023-08-31T13:27:31;22.00;99.90
52275;DHT22;38228;50.940;4.024;2023-08-31T13:29:59;22.10;99.90
52275;DHT22;38228;50.940;4.024;2023-08-31T13:32:24;22.10;99.90
52275;DHT22;38228;50.940;4.024;2023-08-31T13:34:51;22.30;99.90
52275;DHT22;38228;50.940;4.024;2023-08-31T13:37:17;22.30;99.90
52275;DHT22;38228;50.940;4.024;2023-08-31T13:39:43;22.10;99.90
52275;DHT22;38228;50.940;4.024;2023-08-31T13:42:09;22.10;99.90
52275;DHT22;38228;50.940;4.024;2023-08-31T13:44:34;22.30;99.90
52275;DHT22;38228;50.940;4.024;2023-08-31T13:47:01;22.20;99.90
52275;DHT22;38228;50.940;4.024;2023-08-31T13:49:29;22.20;99.90
52275;DHT22;38228;50.940;4.024;2023-08-31T13:51:56;22.10;99.90
52275;DHT22;38228;50.940;4.024;2023-08-31T13:54:21;22.00;99.90
52275;DHT22;38228;50.940;4.024;2023-08-31T13:56:47;22.00;99.90
52275;DHT22;38228;50.940;4.024;2023-08-31T13:59:15;21.90;99.90
52275;DHT22;38228;50.940;4.024;2023-08-31T14:01:41;21.80;99.90
52275;DHT22;38228;50.940;4.024;2023-08-31T14:04:07;21.70;99.90
52275;DHT22;38228;50.940;4.024;2023-08-31T14:06:32;21.80;99.90
52275;DHT22;38228;50.940;4.024;2023-08-31T14:08:58;21.70;99.90
52275;DHT22;38228;50.940;4.024;2023-08-31T14:11:24;21.60;99.90
52275;DHT22;38228;50.940;4.024;2023-08-31T14:13:50;21.70;99.90
52275;DHT22;38228;50.940;4.024;2023-08-31T14:16:18;21.40;99.90
52275;DHT22;38228;50.940;4.024;2023-08-31T14:18:43;21.50;99.90
52275;DHT22;38228;50.940;4.024;2023-08-31T14:21:15;21.30;99.90
52275;DHT22;38228;50.940;4.024;2023-08-31T14:23:40;21.30;99.90
52275;DHT22;38228;50.940;4.024;2023-08-31T14:26:06;21.40;99.90
52275;DHT22;38228;50.940;4.024;2023-08-31T14:28:35;21.50;99.90
52275;DHT22;38228;50.940;4.024;2023-08-31T14:31:05;21.40;99.90
52275;DHT22;38228;50.940;4.024;2023-08-31T14:33:31;21.50;99.90
52275;DHT22;38228;50.940;4.024;2023-08-31T14:35:57;21.70;99.90
52275;DHT22;38228;50.940;4.024;2023-08-31T14:38:23;21.60;99.90
52275;DHT22;38228;50.940;4.024;2023-08-31T14:40:49;21.50;99.90
52275;DHT22;38228;50.940;4.024;2023-08-31T14:43:14;21.50;99.90
52275;DHT22;38228;50.940;4.024;2023-08-31T14:45:40;21.30;99.90
52275;DHT22;38228;50.940;4.024;2023-08-31T14:48:07;21.30;99.90
52275;DHT22;38228;50.940;4.024;2023-08-31T14:50:32;21.30;99.90
52275;DHT22;38228;50.940;4.024;2023-08-31T14:52:58;21.20;99.90
52275;DHT22;38228;50.940;4.024;2023-08-31T14:55:25;21.20;99.90
52275;DHT22;38228;50.940;4.024;2023-08-31T14:57:50;21.20;99.90
52275;DHT22;38228;50.940;4.024;2023-08-31T15:00:16;21.20;99.90
52275;DHT22;38228;50.940;4.024;2023-08-31T15:02:42;21.00;99.90
52275;DHT22;38228;50.940;4.024;2023-08-31T15:05:08;20.80;99.90
52275;DHT22;38228;50.940;4.024;2023-08-31T15:07:34;20.80;99.90
52275;DHT22;38228;50.940;4.024;2023-08-31T15:10:00;20.80;99.90
52275;DHT22;38228;50.940;4.024;2023-08-31T15:12:27;20.80;99.90
52275;DHT22;38228;50.940;4.024;2023-08-31T15:14:52;20.80;99.90
52275;DHT22;38228;50.940;4.024;2023-08-31T15:17:18;20.90;99.90
52275;DHT22;38228;50.940;4.024;2023-08-31T15:19:44;20.90;99.90
52275;DHT22;38228;50.940;4.024;2023-08-31T15:22:09;21.00;99.90
52275;DHT22;38228;50.940;4.024;2023-08-31T15:24:35;20.70;99.90
52275;DHT22;38228;50.940;4.024;2023-08-31T15:27:02;20.40;99.90
52275;DHT22;38228;50.940;4.024;2023-08-31T15:29:29;20.30;99.90
52275;DHT22;38228;50.940;4.024;2023-08-31T15:31:56;20.20;99.90
52275;DHT22;38228;50.940;4.024;2023-08-31T15:34:22;20.10;99.90
52275;DHT22;38228;50.940;4.024;2023-08-31T15:36:48;20.10;99.90
52275;DHT22;38228;50.940;4.024;2023-08-31T15:39:13;20.10;99.90
52275;DHT22;38228;50.940;4.024;2023-08-31T15:41:39;20.30;99.90
52275;DHT22;38228;50.940;4.024;2023-08-31T15:44:05;20.20;99.90
52275;DHT22;38228;50.940;4.024;2023-08-31T15:46:31;20.10;99.90
52275;DHT22;38228;50.940;4.024;2023-08-31T15:48:57;20.10;99.90
52275;DHT22;38228;50.940;4.024;2023-08-31T15:51:22;20.20;99.90
52275;DHT22;38228;50.940;4.024;2023-08-31T15:53:48;20.20;99.90
52275;DHT22;38228;50.940;4.024;2023-08-31T15:56:14;20.10;99.90
52275;DHT22;38228;50.940;4.024;2023-08-31T15:58:39;20.20;99.90
52275;DHT22;38228;50.940;4.024;2023-08-31T16:01:15;20.00;99.90
52275;DHT22;38228;50.940;4.024;2023-08-31T16:03:41;19.90;99.90